createdAt,value
2023-11-08T00:01:02.897Z,1.88
2023-11-08T00:03:29.666Z,1.90
2023-11-08T00:05:56.505Z,2.28
2023-11-08T00:08:23.330Z,1.80
2023-11-08T00:10:50.694Z,1.90
2023-11-08T00:13:21.282Z,1.80
2023-11-08T00:15:51.357Z,1.90
2023-11-08T00:18:18.057Z,1.90
2023-11-08T00:20:46.289Z,1.90
2023-11-08T00:23:13.136Z,2.00
2023-11-08T00:25:39.638Z,1.65
2023-11-08T00:28:06.187Z,1.98
2023-11-08T00:30:32.742Z,1.67
2023-11-08T00:32:59.368Z,2.05
2023-11-08T00:35:27.505Z,1.92
2023-11-08T00:37:54.107Z,1.80
2023-11-08T00:40:20.717Z,1.83
2023-11-08T00:42:47.401Z,1.98
2023-11-08T00:45:14.174Z,2.20
2023-11-08T00:47:40.930Z,1.58
2023-11-08T00:50:08.316Z,1.70
2023-11-08T00:52:37.805Z,1.77
2023-11-08T00:55:06.545Z,1.83
2023-11-08T00:57:33.144Z,1.77
2023-11-08T00:59:59.749Z,1.90
2023-11-08T01:02:26.587Z,1.50
2023-11-08T01:04:53.314Z,1.67
2023-11-08T01:07:19.946Z,1.80
2023-11-08T01:09:46.570Z,1.92
2023-11-08T01:12:13.858Z,1.73
2023-11-08T01:14:42.661Z,1.55
2023-11-08T01:17:10.034Z,1.80
2023-11-08T01:19:37.352Z,1.88
2023-11-08T01:22:06.376Z,2.13
2023-11-08T01:24:33.438Z,1.85
2023-11-08T01:27:01.872Z,1.75
2023-11-08T01:29:29.333Z,1.88
2023-11-08T01:31:56.123Z,2.13
2023-11-08T01:34:22.967Z,1.77
2023-11-08T01:36:49.620Z,2.00
2023-11-08T01:39:16.653Z,1.60
2023-11-08T01:41:49.741Z,2.60
2023-11-08T01:44:19.290Z,2.35
2023-11-08T01:46:55.979Z,2.05
2023-11-08T01:49:28.924Z,1.80
2023-11-08T01:51:56.805Z,2.00
2023-11-08T01:54:24.482Z,2.42
2023-11-08T01:56:51.641Z,1.67
2023-11-08T01:59:19.137Z,2.08
2023-11-08T02:01:46.535Z,1.77
2023-11-08T02:04:13.538Z,2.15
2023-11-08T02:06:40.804Z,1.75
2023-11-08T02:09:07.652Z,1.50
2023-11-08T02:11:34.370Z,2.03
2023-11-08T02:14:02.497Z,1.98
2023-11-08T02:16:33.279Z,2.00
2023-11-08T02:19:00.319Z,1.90
2023-11-08T02:21:27.852Z,2.03
2023-11-08T02:23:55.158Z,1.98
2023-11-08T02:26:22.388Z,2.25
2023-11-08T02:28:49.013Z,2.13
2023-11-08T02:31:16.996Z,2.20
2023-11-08T02:33:43.998Z,1.90
2023-11-08T02:36:10.619Z,2.58
2023-11-08T02:38:37.271Z,1.73
2023-11-08T02:41:04.603Z,1.63
2023-11-08T02:43:32.705Z,1.75
2023-11-08T02:45:59.261Z,1.75
2023-11-08T02:48:25.857Z,1.98
2023-11-08T02:50:52.867Z,2.10
2023-11-08T02:53:21.251Z,1.73
2023-11-08T02:55:48.051Z,1.60
2023-11-08T02:58:15.640Z,1.75
2023-11-08T03:00:42.561Z,1.55
2023-11-08T03:03:09.542Z,1.55
2023-11-08T03:05:36.148Z,1.38
2023-11-08T03:08:02.761Z,1.27
2023-11-08T03:10:29.278Z,2.47
2023-11-08T03:12:56.141Z,1.77
2023-11-08T03:15:23.405Z,1.63
2023-11-08T03:17:52.351Z,1.67
2023-11-08T03:20:20.357Z,1.50
2023-11-08T03:22:47.705Z,1.33
2023-11-08T03:25:14.729Z,1.38
2023-11-08T03:27:45.476Z,1.65
2023-11-08T03:30:14.637Z,1.27
2023-11-08T03:32:41.849Z,1.45
2023-11-08T03:35:09.459Z,1.88
2023-11-08T03:37:40.113Z,1.20
2023-11-08T03:40:12.674Z,1.33
2023-11-08T03:42:40.734Z,1.05
2023-11-08T03:45:08.572Z,1.85
2023-11-08T03:47:35.578Z,1.38
2023-11-08T03:50:02.160Z,1.25
2023-11-08T03:52:28.744Z,1.40
2023-11-08T03:54:55.995Z,1.15
2023-11-08T03:57:22.854Z,1.40
2023-11-08T03:59:51.012Z,1.23
2023-11-08T04:02:21.405Z,1.40
2023-11-08T04:04:51.341Z,1.45
2023-11-08T04:07:21.718Z,1.38
2023-11-08T04:09:48.988Z,0.80
2023-11-08T04:12:15.732Z,1.38
2023-11-08T04:14:42.377Z,1.70
2023-11-08T04:17:10.057Z,1.80
2023-11-08T04:19:37.665Z,1.70
2023-11-08T04:22:06.445Z,1.17
2023-11-08T04:24:34.345Z,1.45
2023-11-08T04:27:04.373Z,1.33
2023-11-08T04:29:34.694Z,1.55
2023-11-08T04:32:01.458Z,1.33
2023-11-08T04:34:28.016Z,1.80
2023-11-08T04:36:54.726Z,1.38
2023-11-08T04:39:23.507Z,1.50
2023-11-08T04:41:51.145Z,1.92
2023-11-08T04:44:18.408Z,1.42
2023-11-08T04:46:45.116Z,1.08
2023-11-08T04:49:13.212Z,1.58
2023-11-08T04:51:40.228Z,1.15
2023-11-08T04:54:07.038Z,1.70
2023-11-08T04:56:33.692Z,1.27
2023-11-08T04:59:00.383Z,1.48
2023-11-08T05:01:29.491Z,1.50
2023-11-08T05:03:56.842Z,1.55
2023-11-08T05:06:23.480Z,1.27
2023-11-08T05:08:51.336Z,1.40
2023-11-08T05:11:18.770Z,1.55
2023-11-08T05:13:45.340Z,1.60
2023-11-08T05:16:13.429Z,1.20
2023-11-08T05:18:40.313Z,1.30
2023-11-08T05:21:07.046Z,1.52
2023-11-08T05:23:34.428Z,1.48
2023-11-08T05:26:01.238Z,1.40
2023-11-08T05:28:27.775Z,1.88
2023-11-08T05:30:54.424Z,1.73
2023-11-08T05:33:21.467Z,1.90
2023-11-08T05:35:48.048Z,1.75
2023-11-08T05:38:14.587Z,1.50
2023-11-08T05:40:41.146Z,1.40
2023-11-08T05:43:07.758Z,1.45
2023-11-08T05:45:34.402Z,1.60
2023-11-08T05:48:01.054Z,1.70
2023-11-08T05:50:27.636Z,1.67
2023-11-08T05:52:55.057Z,1.50
2023-11-08T05:55:21.746Z,1.65
2023-11-08T05:57:48.383Z,1.55
2023-11-08T06:00:15.394Z,1.40
2023-11-08T06:02:42.075Z,1.77
2023-11-08T06:05:09.219Z,2.08
2023-11-08T06:07:35.977Z,1.38
2023-11-08T06:10:03.062Z,2.25
2023-11-08T06:12:29.801Z,1.55
2023-11-08T06:14:56.668Z,2.25
2023-11-08T06:17:23.215Z,2.17
2023-11-08T06:19:50.214Z,1.83
2023-11-08T06:22:17.020Z,1.60
2023-11-08T06:24:43.644Z,1.55
2023-11-08T06:27:10.632Z,1.48
2023-11-08T06:29:40.795Z,1.30
2023-11-08T06:32:08.520Z,1.52
2023-11-08T06:34:35.275Z,2.13
2023-11-08T06:37:02.031Z,1.48
2023-11-08T06:39:29.840Z,1.58
2023-11-08T06:41:57.052Z,1.52
2023-11-08T06:44:23.842Z,1.85
2023-11-08T06:46:50.748Z,1.27
2023-11-08T06:49:17.333Z,1.55
2023-11-08T06:51:45.026Z,1.60
2023-11-08T06:54:13.864Z,1.23
2023-11-08T06:56:40.706Z,1.70
2023-11-08T06:59:07.374Z,1.58
2023-11-08T07:01:36.617Z,1.60
2023-11-08T07:04:03.546Z,1.35
2023-11-08T07:06:30.297Z,1.75
2023-11-08T07:08:56.894Z,1.75
2023-11-08T07:11:25.118Z,1.40
2023-11-08T07:13:51.670Z,1.77
2023-11-08T07:16:19.650Z,1.50
2023-11-08T07:18:47.073Z,2.03
2023-11-08T07:21:20.736Z,1.60
2023-11-08T07:23:48.111Z,1.70
2023-11-08T07:26:16.782Z,1.33
2023-11-08T07:28:48.259Z,1.98
2023-11-08T07:31:15.018Z,1.70
2023-11-08T07:33:42.249Z,1.58
2023-11-08T07:36:09.208Z,1.42
2023-11-08T07:38:36.629Z,1.30
2023-11-08T07:41:03.849Z,1.75
2023-11-08T07:43:30.900Z,1.20
2023-11-08T07:46:00.243Z,1.63
2023-11-08T07:48:27.544Z,2.33
2023-11-08T07:50:55.691Z,1.80
2023-11-08T07:53:22.645Z,1.30
2023-11-08T07:55:50.584Z,1.60
2023-11-08T07:58:20.005Z,2.17
2023-11-08T08:00:47.044Z,1.45
2023-11-08T08:03:14.983Z,1.50
2023-11-08T08:05:47.998Z,1.73
2023-11-08T08:08:26.284Z,1.33
2023-11-08T08:10:52.942Z,1.77
2023-11-08T08:13:54.375Z,1.90
2023-11-08T08:16:36.596Z,1.83
2023-11-08T08:19:18.987Z,1.92
2023-11-08T08:21:45.937Z,1.75
2023-11-08T08:24:39.383Z,2.00
2023-11-08T08:27:06.898Z,1.92
2023-11-08T08:29:44.743Z,2.00
2023-11-08T08:32:21.225Z,1.67
2023-11-08T08:34:50.048Z,2.03
2023-11-08T08:37:59.987Z,2.45
2023-11-08T08:41:30.709Z,2.20
2023-11-08T08:44:07.680Z,2.35
2023-11-08T08:46:34.599Z,1.60
2023-11-08T08:49:01.890Z,2.53
2023-11-08T08:51:28.842Z,1.90
2023-11-08T08:53:56.675Z,2.22
2023-11-08T08:56:24.301Z,1.73
2023-11-08T08:58:50.870Z,1.60
2023-11-08T09:01:20.357Z,2.25
2023-11-08T09:03:47.104Z,2.22
2023-11-08T09:06:13.861Z,2.13
2023-11-08T09:08:40.625Z,2.08
2023-11-08T09:11:07.305Z,1.90
2023-11-08T09:13:33.958Z,1.80
2023-11-08T09:16:02.381Z,1.58
2023-11-08T09:18:29.860Z,2.00
2023-11-08T09:20:58.005Z,2.38
2023-11-08T09:23:25.082Z,1.90
2023-11-08T09:25:51.656Z,2.33
2023-11-08T09:28:18.273Z,2.05
2023-11-08T09:30:44.891Z,2.28
2023-11-08T09:33:11.566Z,1.88
2023-11-08T09:35:38.800Z,1.52
2023-11-08T09:38:05.724Z,1.75
2023-11-08T09:40:32.996Z,2.28
2023-11-08T09:43:00.493Z,2.00
2023-11-08T09:45:32.074Z,1.98
2023-11-08T09:47:59.375Z,1.70
2023-11-08T09:50:26.535Z,1.40
2023-11-08T09:52:53.250Z,1.75
2023-11-08T09:55:19.971Z,1.65
2023-11-08T09:57:47.154Z,2.20
2023-11-08T10:00:15.499Z,2.75
2023-11-08T10:02:42.974Z,1.75
2023-11-08T10:05:10.538Z,1.88
2023-11-08T10:07:38.934Z,1.50
2023-11-08T10:10:07.896Z,1.95
2023-11-08T10:12:34.510Z,1.88
2023-11-08T10:15:04.165Z,2.25
2023-11-08T10:19:30.130Z,1.77
2023-11-08T10:20:28.700Z,2.08
2023-11-08T10:22:55.548Z,1.88
2023-11-08T10:25:26.878Z,2.58
2023-11-08T10:28:11.975Z,1.73
2023-11-08T10:30:41.263Z,2.33
2023-11-08T10:33:12.588Z,1.67
2023-11-08T10:35:41.397Z,1.70
2023-11-08T10:38:10.901Z,1.85
2023-11-08T10:40:37.614Z,1.65
2023-11-08T10:43:05.257Z,1.25
2023-11-08T10:45:34.006Z,1.55
2023-11-08T10:48:00.886Z,1.73
2023-11-08T10:50:28.390Z,1.70
2023-11-08T10:52:55.349Z,1.83
2023-11-08T10:55:26.601Z,1.40
2023-11-08T10:57:55.619Z,1.83
2023-11-08T11:00:27.279Z,1.67
2023-11-08T11:02:58.251Z,1.20
2023-11-08T11:05:25.524Z,1.80
2023-11-08T11:07:56.185Z,1.33
2023-11-08T11:10:23.147Z,1.88
2023-11-08T11:13:15.000Z,1.50
2023-11-08T11:15:45.479Z,1.38
2023-11-08T11:18:18.385Z,1.40
2023-11-08T11:20:57.434Z,2.05
2023-11-08T11:23:36.967Z,1.88
2023-11-08T11:26:05.195Z,1.85
2023-11-08T11:28:54.891Z,1.60
2023-11-08T11:31:42.376Z,2.03
2023-11-08T11:34:21.392Z,1.40
2023-11-08T11:37:19.688Z,1.80
2023-11-08T11:40:10.167Z,1.15
2023-11-08T11:42:36.976Z,1.42
2023-11-08T11:45:09.846Z,1.98
2023-11-08T11:47:37.715Z,1.23
2023-11-08T11:50:09.068Z,1.10
2023-11-08T11:52:37.704Z,1.40
2023-11-08T11:55:10.072Z,1.42
2023-11-08T11:57:37.842Z,1.65
2023-11-08T12:00:06.815Z,1.40
2023-11-08T12:02:37.156Z,1.27
2023-11-08T12:05:04.848Z,1.20
2023-11-08T12:07:32.403Z,1.02
2023-11-08T12:10:08.326Z,1.33
2023-11-08T12:12:35.179Z,1.05
2023-11-08T12:15:20.035Z,1.50
2023-11-08T12:17:51.513Z,1.10
2023-11-08T12:20:22.031Z,1.13
2023-11-08T12:22:50.116Z,1.10
2023-11-08T12:25:19.684Z,1.08
2023-11-08T12:27:50.624Z,1.40
2023-11-08T12:30:18.563Z,1.52
2023-11-08T12:32:46.058Z,0.85
2023-11-08T12:35:12.967Z,1.13
2023-11-08T12:37:40.862Z,1.25
2023-11-08T12:40:22.197Z,1.00
2023-11-08T12:42:49.859Z,1.17
2023-11-08T12:46:33.749Z,1.15
2023-11-08T12:48:16.777Z,1.30
2023-11-08T12:50:52.713Z,1.00
2023-11-08T12:53:19.327Z,1.27
2023-11-08T12:55:46.332Z,1.20
2023-11-08T12:58:28.347Z,1.00
2023-11-08T13:00:56.208Z,1.00
2023-11-08T13:03:27.123Z,1.42
2023-11-08T13:05:55.213Z,1.10
2023-11-08T13:08:22.969Z,1.60
2023-11-08T13:10:49.844Z,1.05
2023-11-08T13:13:16.812Z,1.45
2023-11-08T13:15:43.589Z,0.98
2023-11-08T13:18:11.918Z,1.17
2023-11-08T13:20:38.523Z,0.93
2023-11-08T13:23:05.807Z,1.35
2023-11-08T13:25:52.330Z,1.00
2023-11-08T13:28:18.903Z,1.05
2023-11-08T13:30:45.539Z,1.08
2023-11-08T13:33:12.144Z,0.95
2023-11-08T13:35:39.998Z,0.95
2023-11-08T13:38:08.926Z,1.10
2023-11-08T13:40:35.527Z,0.98
2023-11-08T13:43:02.569Z,1.02
2023-11-08T13:45:30.062Z,0.85
2023-11-08T13:47:57.960Z,1.30
2023-11-08T13:50:25.072Z,1.30
2023-11-08T13:52:52.330Z,1.13
2023-11-08T13:55:19.290Z,1.38
2023-11-08T13:57:47.127Z,1.10
2023-11-08T14:00:18.692Z,1.38
2023-11-08T14:02:47.104Z,0.95
2023-11-08T14:05:15.243Z,1.10
2023-11-08T14:07:42.338Z,1.10
2023-11-08T14:10:09.344Z,1.00
2023-11-08T14:12:36.173Z,1.20
2023-11-08T14:15:02.980Z,1.25
2023-11-08T14:17:32.478Z,1.10
2023-11-08T14:19:59.199Z,1.00
2023-11-08T14:22:26.455Z,0.90
2023-11-08T14:24:53.200Z,1.10
2023-11-08T14:27:19.766Z,1.20
2023-11-08T14:29:46.989Z,1.10
2023-11-08T14:32:13.576Z,1.10
2023-11-08T14:34:42.734Z,1.20
2023-11-08T14:37:09.615Z,0.95
2023-11-08T14:39:37.355Z,0.90
2023-11-08T14:42:04.510Z,0.90
2023-11-08T14:44:31.507Z,1.00
2023-11-08T14:46:58.246Z,0.82
2023-11-08T14:49:25.830Z,1.30
2023-11-08T14:51:52.670Z,1.50
2023-11-08T14:54:19.317Z,1.30
2023-11-08T14:56:47.861Z,1.02
2023-11-08T14:59:14.437Z,1.23
2023-11-08T15:01:41.056Z,1.10
2023-11-08T15:04:09.399Z,1.52
2023-11-08T15:06:36.933Z,1.10
2023-11-08T15:09:51.909Z,1.00
2023-11-08T15:11:52.071Z,1.02
2023-11-08T15:14:18.911Z,1.73
2023-11-08T15:16:45.592Z,1.20
2023-11-08T15:19:12.447Z,1.45
2023-11-08T15:21:43.272Z,1.23
2023-11-08T15:24:11.032Z,1.17
2023-11-08T15:26:38.691Z,0.93
2023-11-08T15:29:06.592Z,1.40
2023-11-08T15:31:33.641Z,1.10
2023-11-08T15:34:00.375Z,0.80
2023-11-08T15:36:26.956Z,1.13
2023-11-08T15:38:56.190Z,1.17
2023-11-08T15:41:27.083Z,1.27
2023-11-08T15:43:54.675Z,0.88
2023-11-08T15:46:22.361Z,1.08
2023-11-08T15:48:50.111Z,1.05
2023-11-08T15:51:20.790Z,1.00
2023-11-08T15:53:48.676Z,1.00
2023-11-08T15:56:16.075Z,0.93
2023-11-08T15:58:43.521Z,1.00
2023-11-08T16:01:10.146Z,0.73
2023-11-08T16:03:36.895Z,1.05
2023-11-08T16:06:04.143Z,0.88
2023-11-08T16:08:30.741Z,1.02
2023-11-08T16:10:57.748Z,1.02
2023-11-08T16:13:25.577Z,0.90
2023-11-08T16:15:53.959Z,1.17
2023-11-08T16:18:20.612Z,0.82
2023-11-08T16:20:50.842Z,1.30
2023-11-08T16:23:18.331Z,0.77
2023-11-08T16:25:44.916Z,1.17
2023-11-08T16:28:11.559Z,1.20
2023-11-08T16:31:00.503Z,1.00
2023-11-08T16:33:26.124Z,0.77
2023-11-08T16:35:52.727Z,1.52
2023-11-08T16:38:19.559Z,0.85
2023-11-08T16:40:46.186Z,1.00
2023-11-08T16:43:12.898Z,0.93
2023-11-08T16:45:39.609Z,0.90
2023-11-08T16:48:06.343Z,1.52
2023-11-08T16:50:32.958Z,1.15
2023-11-08T16:52:59.590Z,1.35
2023-11-08T16:55:26.490Z,0.80
2023-11-08T16:57:54.673Z,1.00
2023-11-08T17:00:24.138Z,1.02
2023-11-08T17:02:50.973Z,1.08
2023-11-08T17:05:17.824Z,1.00
2023-11-08T17:07:44.714Z,0.90
2023-11-08T17:10:12.867Z,1.98
2023-11-08T17:12:39.884Z,1.30
2023-11-08T17:15:08.844Z,1.38
2023-11-08T17:17:35.665Z,0.98
2023-11-08T17:20:02.219Z,1.10
2023-11-08T17:22:28.807Z,1.00
2023-11-08T17:24:55.380Z,1.30
2023-11-08T17:27:22.093Z,1.02
2023-11-08T17:29:48.635Z,1.10
2023-11-08T17:32:15.492Z,1.17
2023-11-08T17:34:42.106Z,1.30
2023-11-08T17:37:08.737Z,1.30
2023-11-08T17:39:35.323Z,1.10
2023-11-08T17:42:01.853Z,1.40
2023-11-08T17:44:29.682Z,1.30
2023-11-08T17:46:56.832Z,1.38
2023-11-08T17:49:23.502Z,1.10
2023-11-08T17:51:50.269Z,0.88
2023-11-08T17:54:17.069Z,1.00
2023-11-08T17:56:46.912Z,1.33
2023-11-08T17:59:13.984Z,0.90
2023-11-08T18:01:40.579Z,1.13
2023-11-08T18:04:07.254Z,1.48
2023-11-08T18:06:36.441Z,1.10
2023-11-08T18:09:03.755Z,1.30
2023-11-08T18:11:30.294Z,1.33
2023-11-08T18:13:57.906Z,1.20
2023-11-08T18:16:24.617Z,2.15
2023-11-08T18:18:51.263Z,1.13
2023-11-08T18:21:17.907Z,1.15
2023-11-08T18:23:44.596Z,1.10
2023-11-08T18:26:11.260Z,1.17
2023-11-08T18:28:37.859Z,1.02
2023-11-08T18:31:04.565Z,1.13
2023-11-08T18:33:31.840Z,1.17
2023-11-08T18:35:58.370Z,0.93
2023-11-08T18:38:25.012Z,1.10
2023-11-08T18:40:55.117Z,1.05
2023-11-08T18:43:25.855Z,1.02
2023-11-08T18:45:56.243Z,1.40
2023-11-08T18:48:27.519Z,0.98
2023-11-08T18:50:55.816Z,1.17
2023-11-08T18:53:24.704Z,1.52
2023-11-08T18:55:51.359Z,1.23
2023-11-08T18:58:23.581Z,1.10
2023-11-08T19:00:52.710Z,0.95
2023-11-08T19:03:19.337Z,1.17
2023-11-08T19:05:46.269Z,1.05
2023-11-08T19:08:12.911Z,0.90
2023-11-08T19:10:39.414Z,0.80
2023-11-08T19:13:06.256Z,1.17
2023-11-08T19:15:33.193Z,1.17
2023-11-08T19:18:00.253Z,1.40
2023-11-08T19:20:26.888Z,1.05
2023-11-08T19:22:57.213Z,1.10
2023-11-08T19:25:26.158Z,1.05
2023-11-08T19:27:54.062Z,0.90
2023-11-08T19:30:20.833Z,1.20
2023-11-08T19:32:47.436Z,1.05
2023-11-08T19:35:14.104Z,1.17
2023-11-08T19:37:41.161Z,1.17
2023-11-08T19:40:11.616Z,1.15
2023-11-08T19:42:38.351Z,1.30
2023-11-08T19:45:06.608Z,1.23
2023-11-08T19:47:33.191Z,1.25
2023-11-08T19:49:59.838Z,1.02
2023-11-08T19:52:26.414Z,1.15
2023-11-08T19:54:55.999Z,1.00
2023-11-08T19:57:23.812Z,1.40
2023-11-08T19:59:54.398Z,1.20
2023-11-08T20:02:21.068Z,2.22
2023-11-08T20:04:47.612Z,0.85
2023-11-08T20:07:14.239Z,1.17
2023-11-08T20:09:40.795Z,0.95
2023-11-08T20:12:07.765Z,1.00
2023-11-08T20:14:34.341Z,0.82
2023-11-08T20:17:01.900Z,0.88
2023-11-08T20:19:28.404Z,1.00
2023-11-08T20:21:55.080Z,1.00
2023-11-08T20:24:21.711Z,1.30
2023-11-08T20:26:49.232Z,0.90
2023-11-08T20:29:16.654Z,0.70
2023-11-08T20:31:45.820Z,1.00
2023-11-08T20:34:12.469Z,1.00
2023-11-08T20:36:39.079Z,0.90
2023-11-08T20:39:06.238Z,0.90
2023-11-08T20:41:32.802Z,0.88
2023-11-08T20:43:59.932Z,1.00
2023-11-08T20:46:26.518Z,1.10
2023-11-08T20:48:53.134Z,0.90
2023-11-08T20:51:19.776Z,1.15
2023-11-08T20:53:46.409Z,1.10
2023-11-08T20:56:13.293Z,0.95
2023-11-08T20:58:40.133Z,1.15
2023-11-08T21:01:07.421Z,0.90
2023-11-08T21:03:34.107Z,0.90
2023-11-08T21:06:00.981Z,0.80
2023-11-08T21:08:27.580Z,1.00
2023-11-08T21:10:54.211Z,0.90
2023-11-08T21:13:20.794Z,0.80
2023-11-08T21:15:49.635Z,0.82
2023-11-08T21:18:19.212Z,1.20
2023-11-08T21:20:48.551Z,1.08
2023-11-08T21:23:15.165Z,1.23
2023-11-08T21:25:41.733Z,1.20
2023-11-08T21:28:08.344Z,1.02
2023-11-08T21:30:35.242Z,0.95
2023-11-08T21:33:01.891Z,0.90
2023-11-08T21:35:30.763Z,0.80
2023-11-08T21:37:59.062Z,1.50
2023-11-08T21:40:25.900Z,0.75
2023-11-08T21:42:52.770Z,0.75
2023-11-08T21:45:19.499Z,1.33
2023-11-08T21:47:46.281Z,0.93
2023-11-08T21:50:13.528Z,1.00
2023-11-08T21:52:40.217Z,0.98
2023-11-08T21:55:07.306Z,1.15
2023-11-08T21:57:34.069Z,1.33
2023-11-08T22:00:00.817Z,1.00
2023-11-08T22:02:27.432Z,0.98
2023-11-08T22:04:54.394Z,1.30
2023-11-08T22:07:21.044Z,0.82
2023-11-08T22:09:47.731Z,1.20
2023-11-08T22:12:14.359Z,1.05
2023-11-08T22:14:40.917Z,0.85
2023-11-08T22:17:07.979Z,0.98
2023-11-08T22:19:34.859Z,0.80
2023-11-08T22:22:01.627Z,0.90
2023-11-08T22:24:28.832Z,0.70
2023-11-08T22:26:55.422Z,0.90
2023-11-08T22:29:22.265Z,0.93
2023-11-08T22:31:48.861Z,1.02
2023-11-08T22:34:15.482Z,0.73
2023-11-08T22:36:42.050Z,0.90
2023-11-08T22:39:09.206Z,1.00
2023-11-08T22:41:35.946Z,1.00
2023-11-08T22:44:02.539Z,0.82
2023-11-08T22:46:32.644Z,0.95
2023-11-08T22:48:59.667Z,0.98
2023-11-08T22:51:26.487Z,0.80
2023-11-08T22:53:55.811Z,0.93
2023-11-08T22:56:22.427Z,0.90
2023-11-08T22:58:49.049Z,0.70
2023-11-08T23:01:33.232Z,1.05
2023-11-08T23:04:03.709Z,1.17
2023-11-08T23:06:31.457Z,1.02
2023-11-08T23:09:01.588Z,0.90
2023-11-08T23:11:30.999Z,0.95
2023-11-08T23:13:57.614Z,1.00
2023-11-08T23:16:25.324Z,1.20
2023-11-08T23:18:55.236Z,0.93
2023-11-08T23:21:22.321Z,1.05
2023-11-08T23:23:50.437Z,0.90
2023-11-08T23:26:17.110Z,0.80
2023-11-08T23:28:44.750Z,0.90
2023-11-08T23:31:11.915Z,0.80
2023-11-08T23:33:38.586Z,1.05
2023-11-08T23:36:05.817Z,1.17
2023-11-08T23:38:32.677Z,1.08
2023-11-08T23:41:05.781Z,1.27
2023-11-08T23:43:32.391Z,1.00
2023-11-08T23:46:01.782Z,1.02
2023-11-08T23:48:28.615Z,0.98
2023-11-08T23:50:55.938Z,0.80
2023-11-08T23:53:22.773Z,1.20
2023-11-08T23:55:49.421Z,1.08
2023-11-08T23:58:16.810Z,1.20
